sensor_id;sensor_type;location;lat;lon;timestamp;pressure;altitude;pressure_sealevel;temperature;humidity
76586;BME280;65251;51.022;13.736;2023-07-20T00:00:16;98955.72;;;17.83;81.59
76586;BME280;65251;51.022;13.736;2023-07-20T00:00:48;98957.88;;;17.81;82.78
76586;BME280;65251;51.022;13.736;2023-07-20T00:01:20;98960.03;;;17.84;82.36
76586;BME280;65251;51.022;13.736;2023-07-20T00:01:51;98961.38;;;17.82;83.07
76586;BME280;65251;51.022;13.736;2023-07-20T00:02:22;98959.50;;;17.82;81.96
76586;BME280;65251;51.022;13.736;2023-07-20T00:03:10;98962.19;;;17.82;81.87
76586;BME280;65251;51.022;13.736;2023-07-20T00:03:41;98961.94;;;17.84;80.94
76586;BME280;65251;51.022;13.736;2023-07-20T00:04:13;98960.88;;;17.85;80.68
76586;BME280;65251;51.022;13.736;2023-07-20T00:04:44;98960.88;;;17.85;81.84
76586;BME280;65251;51.022;13.736;2023-07-20T00:05:16;98963.56;;;17.85;81.90
76586;BME280;65251;51.022;13.736;2023-07-20T00:05:48;98959.78;;;17.86;82.75
76586;BME280;65251;51.022;13.736;2023-07-20T00:06:19;98958.69;;;17.82;82.44
76586;BME280;65251;51.022;13.736;2023-07-20T00:06:50;98955.19;;;17.81;82.30
76586;BME280;65251;51.022;13.736;2023-07-20T00:07:22;98957.59;;;17.78;82.32
76586;BME280;65251;51.022;13.736;2023-07-20T00:07:52;98960.28;;;17.78;82.28
76586;BME280;65251;51.022;13.736;2023-07-20T00:08:24;98958.13;;;17.80;82.29
76586;BME280;65251;51.022;13.736;2023-07-20T00:08:55;98961.88;;;17.79;81.42
76586;BME280;65251;51.022;13.736;2023-07-20T00:09:29;98958.13;;;17.80;81.36
76586;BME280;65251;51.022;13.736;2023-07-20T00:09:59;98954.34;;;17.81;81.11
76586;BME280;65251;51.022;13.736;2023-07-20T00:10:30;98952.47;;;17.81;81.15
76586;BME280;65251;51.022;13.736;2023-07-20T00:11:01;98952.47;;;17.81;81.88
76586;BME280;65251;51.022;13.736;2023-07-20T00:11:36;98955.97;;;17.82;82.08
76586;BME280;65251;51.022;13.736;2023-07-20T00:12:08;98960.03;;;17.84;81.18
76586;BME280;65251;51.022;13.736;2023-07-20T00:12:39;98953.03;;;17.83;82.32
76586;BME280;65251;51.022;13.736;2023-07-20T00:13:10;98964.63;;;17.84;81.52
76586;BME280;65251;51.022;13.736;2023-07-20T00:13:42;98939.22;;;17.70;81.92
76586;BME280;65251;51.022;13.736;2023-07-20T00:14:12;98958.69;;;17.82;81.98
76586;BME280;65251;51.022;13.736;2023-07-20T00:14:43;98957.63;;;17.83;81.12
76586;BME280;65251;51.022;13.736;2023-07-20T00:15:15;98954.91;;;17.83;82.06
76586;BME280;65251;51.022;13.736;2023-07-20T00:15:46;98958.41;;;17.83;82.70
76586;BME280;65251;51.022;13.736;2023-07-20T00:16:17;98958.69;;;17.82;81.92
76586;BME280;65251;51.022;13.736;2023-07-20T00:16:50;98953.53;;;17.80;82.80
76586;BME280;65251;51.022;13.736;2023-07-20T00:17:25;98950.59;;;17.82;82.38
76586;BME280;65251;51.022;13.736;2023-07-20T00:17:57;98946.03;;;17.82;82.57
76586;BME280;65251;51.022;13.736;2023-07-20T00:18:27;98943.03;;;17.79;81.96
76586;BME280;65251;51.022;13.736;2023-07-20T00:18:59;98949.28;;;17.84;81.38
76586;BME280;65251;51.022;13.736;2023-07-20T00:19:30;98946.56;;;17.84;82.04
76586;BME280;65251;51.022;13.736;2023-07-20T00:20:02;98951.97;;;17.84;82.60
76586;BME280;65251;51.022;13.736;2023-07-20T00:20:36;98951.44;;;17.87;83.09
76586;BME280;65251;51.022;13.736;2023-07-20T00:21:07;98949.31;;;17.89;82.27
76586;BME280;65251;51.022;13.736;2023-07-20T00:21:38;98944.47;;;17.92;82.68
76586;BME280;65251;51.022;13.736;2023-07-20T00:22:11;98946.09;;;17.93;81.29
76586;BME280;65251;51.022;13.736;2023-07-20T00:22:43;98938.00;;;17.93;81.86
76586;BME280;65251;51.022;13.736;2023-07-20T00:23:15;98940.16;;;17.90;81.88
76586;BME280;65251;51.022;13.736;2023-07-20T00:23:47;98929.09;;;17.92;81.00
76586;BME280;65251;51.022;13.736;2023-07-20T00:24:18;98934.22;;;17.88;80.89
76586;BME280;65251;51.022;13.736;2023-07-20T00:24:48;98935.84;;;17.89;80.65
76586;BME280;65251;51.022;13.736;2023-07-20T00:25:20;98931.78;;;17.87;81.96
76586;BME280;65251;51.022;13.736;2023-07-20T00:25:51;98933.41;;;17.88;82.11
76586;BME280;65251;51.022;13.736;2023-07-20T00:26:22;98919.06;;;17.82;81.63
76586;BME280;65251;51.022;13.736;2023-07-20T00:26:53;98930.19;;;17.91;81.58
76586;BME280;65251;51.022;13.736;2023-07-20T00:27:24;98940.41;;;17.89;81.41
76586;BME280;65251;51.022;13.736;2023-07-20T00:27:55;98938.53;;;17.89;80.72
76586;BME280;65251;51.022;13.736;2023-07-20T00:28:26;98944.72;;;17.90;80.88
76586;BME280;65251;51.022;13.736;2023-07-20T00:28:57;98942.28;;;17.88;81.62
76586;BME280;65251;51.022;13.736;2023-07-20T00:29:28;98941.47;;;17.88;81.61
76586;BME280;65251;51.022;13.736;2023-07-20T00:29:59;98941.22;;;17.89;80.76
76586;BME280;65251;51.022;13.736;2023-07-20T00:30:30;98943.66;;;17.91;80.85
76586;BME280;65251;51.022;13.736;2023-07-20T00:31:00;98939.34;;;17.90;80.99
76586;BME280;65251;51.022;13.736;2023-07-20T00:31:33;98942.84;;;17.90;80.84
76586;BME280;65251;51.022;13.736;2023-07-20T00:32:06;98944.72;;;17.90;81.08
76586;BME280;65251;51.022;13.736;2023-07-20T00:32:36;98942.28;;;17.88;82.03
76586;BME280;65251;51.022;13.736;2023-07-20T00:33:10;98943.38;;;17.87;81.26
76586;BME280;65251;51.022;13.736;2023-07-20T00:33:42;98952.25;;;17.88;80.81
76586;BME280;65251;51.022;13.736;2023-07-20T00:34:13;98948.75;;;17.87;81.52
76586;BME280;65251;51.022;13.736;2023-07-20T00:34:44;98947.94;;;17.87;81.39
76586;BME280;65251;51.022;13.736;2023-07-20T00:35:15;98951.44;;;17.87;81.48
76586;BME280;65251;51.022;13.736;2023-07-20T00:35:46;98951.72;;;17.86;81.13
76586;BME280;65251;51.022;13.736;2023-07-20T00:36:17;98946.81;;;17.83;80.73
76586;BME280;65251;51.022;13.736;2023-07-20T00:36:48;98946.28;;;17.81;81.70
76586;BME280;65251;51.022;13.736;2023-07-20T00:37:20;98944.94;;;17.78;80.75
76586;BME280;65251;51.022;13.736;2023-07-20T00:37:51;98951.66;;;17.76;82.57
76586;BME280;65251;51.022;13.736;2023-07-20T00:38:22;98947.34;;;17.75;83.07
76586;BME280;65251;51.022;13.736;2023-07-20T00:38:54;98944.91;;;17.73;82.75
76586;BME280;65251;51.022;13.736;2023-07-20T00:39:26;98941.13;;;17.74;82.41
76586;BME280;65251;51.022;13.736;2023-07-20T00:39:57;98940.84;;;17.71;82.23
76586;BME280;65251;51.022;13.736;2023-07-20T00:40:27;98944.34;;;17.71;83.55
76586;BME280;65251;51.022;13.736;2023-07-20T00:40:58;98943.47;;;17.66;84.47
76586;BME280;65251;51.022;13.736;2023-07-20T00:41:30;98942.66;;;17.65;83.96
76586;BME280;65251;51.022;13.736;2023-07-20T00:42:02;98940.78;;;17.66;83.94
76586;BME280;65251;51.022;13.736;2023-07-20T00:42:33;98945.91;;;17.67;83.97
76586;BME280;65251;51.022;13.736;2023-07-20T00:43:04;98947.28;;;17.70;83.78
76586;BME280;65251;51.022;13.736;2023-07-20T00:43:36;98949.97;;;17.70;83.17
76586;BME280;65251;51.022;13.736;2023-07-20T00:44:07;98955.94;;;17.72;81.96
76586;BME280;65251;51.022;13.736;2023-07-20T00:44:37;98953.66;;;17.64;82.35
76586;BME280;65251;51.022;13.736;2023-07-20T00:45:09;98944.56;;;17.65;81.62
76586;BME280;65251;51.022;13.736;2023-07-20T00:45:41;98946.91;;;17.61;83.72
76586;BME280;65251;51.022;13.736;2023-07-20T00:46:12;98950.97;;;17.64;83.74
76586;BME280;65251;51.022;13.736;2023-07-20T00:46:43;98952.63;;;17.65;83.21
76586;BME280;65251;51.022;13.736;2023-07-20T00:47:16;98958.25;;;17.63;83.11
76586;BME280;65251;51.022;13.736;2023-07-20T00:47:47;98956.97;;;17.66;83.73
76586;BME280;65251;51.022;13.736;2023-07-20T00:48:18;98955.06;;;17.66;83.70
76586;BME280;65251;51.022;13.736;2023-07-20T00:48:49;98957.78;;;17.66;82.27
76586;BME280;65251;51.022;13.736;2023-07-20T00:49:21;98946.19;;;17.66;82.49
76586;BME280;65251;51.022;13.736;2023-07-20T00:49:52;98955.06;;;17.66;82.58
76586;BME280;65251;51.022;13.736;2023-07-20T00:50:24;98952.38;;;17.66;84.15
76586;BME280;65251;51.022;13.736;2023-07-20T00:50:58;98960.22;;;17.68;83.58
76586;BME280;65251;51.022;13.736;2023-07-20T00:51:31;98953.50;;;17.70;82.10
76586;BME280;65251;51.022;13.736;2023-07-20T00:52:03;98950.25;;;17.68;81.31
76586;BME280;65251;51.022;13.736;2023-07-20T00:52:35;98958.31;;;17.68;82.18
76586;BME280;65251;51.022;13.736;2023-07-20T00:53:09;98959.94;;;17.69;80.82
76586;BME280;65251;51.022;13.736;2023-07-20T00:53:41;98957.50;;;17.68;81.81
76586;BME280;65251;51.022;13.736;2023-07-20T00:54:14;98950.25;;;17.68;80.34
76586;BME280;65251;51.022;13.736;2023-07-20T00:54:45;98954.25;;;17.66;82.03
76586;BME280;65251;51.022;13.736;2023-07-20T00:55:18;98948.88;;;17.66;82.78
76586;BME280;65251;51.022;13.736;2023-07-20T00:55:49;98953.44;;;17.65;81.72
76586;BME280;65251;51.022;13.736;2023-07-20T00:56:21;98947.28;;;17.70;81.84
76586;BME280;65251;51.022;13.736;2023-07-20T00:56:53;98958.75;;;17.60;82.63
76586;BME280;65251;51.022;13.736;2023-07-20T00:57:26;98951.22;;;17.57;82.93
76586;BME280;65251;51.022;13.736;2023-07-20T00:57:58;98954.19;;;17.61;81.73
76586;BME280;65251;51.022;13.736;2023-07-20T00:58:30;98950.69;;;17.60;80.48
76586;BME280;65251;51.022;13.736;2023-07-20T00:59:01;98958.50;;;17.62;80.92
76586;BME280;65251;51.022;13.736;2023-07-20T00:59:33;98956.88;;;17.61;80.51
76586;BME280;65251;51.022;13.736;2023-07-20T01:00:06;98951.81;;;17.64;81.50
76586;BME280;65251;51.022;13.736;2023-07-20T01:00:37;98945.59;;;17.64;81.70
76586;BME280;65251;51.022;13.736;2023-07-20T01:01:09;98950.50;;;17.67;81.48
76586;BME280;65251;51.022;13.736;2023-07-20T01:01:40;98946.72;;;17.68;80.83
76586;BME280;65251;51.022;13.736;2023-07-20T01:02:10;98950.81;;;17.70;80.36
76586;BME280;65251;51.022;13.736;2023-07-20T01:02:41;98949.69;;;17.66;81.24
76586;BME280;65251;51.022;13.736;2023-07-20T01:03:13;98946.19;;;17.66;80.84
76586;BME280;65251;51.022;13.736;2023-07-20T01:03:44;98958.03;;;17.65;80.78
76586;BME280;65251;51.022;13.736;2023-07-20T01:04:15;98960.47;;;17.66;79.57
76586;BME280;65251;51.022;13.736;2023-07-20T01:04:46;98959.66;;;17.66;80.19
76586;BME280;65251;51.022;13.736;2023-07-20T01:05:19;98960.22;;;17.68;80.85
76586;BME280;65251;51.022;13.736;2023-07-20T01:05:54;98954.56;;;17.69;81.13
76586;BME280;65251;51.022;13.736;2023-07-20T01:06:37;98957.00;;;17.71;81.84
76586;BME280;65251;51.022;13.736;2023-07-20T01:07:17;98962.34;;;17.66;81.52
76586;BME280;65251;51.022;13.736;2023-07-20T01:07:58;98959.56;;;17.61;82.13
76586;BME280;65251;51.022;13.736;2023-07-20T01:08:36;98954.75;;;17.63;82.54
76586;BME280;65251;51.022;13.736;2023-07-20T01:09:16;98960.72;;;17.65;82.74
76586;BME280;65251;51.022;13.736;2023-07-20T01:09:56;98957.22;;;17.64;82.79
76586;BME280;65251;51.022;13.736;2023-07-20T01:10:36;98958.59;;;17.67;81.39
76586;BME280;65251;51.022;13.736;2023-07-20T01:11:16;98955.25;;;17.60;80.41
76586;BME280;65251;51.022;13.736;2023-07-20T01:12:00;98955.75;;;17.51;80.65
76586;BME280;65251;51.022;13.736;2023-07-20T01:12:41;98946.00;;;17.45;81.09
76586;BME280;65251;51.022;13.736;2023-07-20T01:13:14;98945.47;;;17.48;81.65
76586;BME280;65251;51.022;13.736;2023-07-20T01:13:46;98947.09;;;17.49;81.59
76586;BME280;65251;51.022;13.736;2023-07-20T01:14:20;98933.91;;;17.48;82.25
76586;BME280;65251;51.022;13.736;2023-07-20T01:14:51;98945.72;;;17.47;81.25
76586;BME280;65251;51.022;13.736;2023-07-20T01:15:22;98939.75;;;17.40;82.90
76586;BME280;65251;51.022;13.736;2023-07-20T01:15:57;98943.25;;;17.40;81.08
76586;BME280;65251;51.022;13.736;2023-07-20T01:16:28;98945.44;;;17.43;82.41
76586;BME280;65251;51.022;13.736;2023-07-20T01:16:59;98940.84;;;17.44;82.01
76586;BME280;65251;51.022;13.736;2023-07-20T01:17:30;98947.81;;;17.40;83.00
76586;BME280;65251;51.022;13.736;2023-07-20T01:18:02;98944.84;;;17.36;81.64
76586;BME280;65251;51.022;13.736;2023-07-20T01:18:34;98955.38;;;17.38;82.37
76586;BME280;65251;51.022;13.736;2023-07-20T01:19:05;98950.50;;;17.40;79.88
76586;BME280;65251;51.022;13.736;2023-07-20T01:19:37;98951.59;;;17.39;81.50
76586;BME280;65251;51.022;13.736;2023-07-20T01:20:10;98952.38;;;17.34;82.30
76586;BME280;65251;51.022;13.736;2023-07-20T01:20:42;98952.94;;;17.36;81.00
76586;BME280;65251;51.022;13.736;2023-07-20T01:21:22;98954.00;;;17.35;81.66
76586;BME280;65251;51.022;13.736;2023-07-20T01:21:59;98948.06;;;17.33;82.54
76586;BME280;65251;51.022;13.736;2023-07-20T01:22:59;98951.06;;;17.37;82.11
76586;BME280;65251;51.022;13.736;2023-07-20T01:23:57;98952.97;;;17.41;80.00
76586;BME280;65251;51.022;13.736;2023-07-20T01:25:00;98955.13;;;17.44;81.66
76586;BME280;65251;51.022;13.736;2023-07-20T01:25:57;98958.91;;;17.43;81.57
76586;BME280;65251;51.022;13.736;2023-07-20T01:26:54;98966.47;;;17.46;81.91
76586;BME280;65251;51.022;13.736;2023-07-20T01:28:12;98957.31;;;17.47;81.20
76586;BME280;65251;51.022;13.736;2023-07-20T01:29:02;98958.69;;;17.50;80.04
76586;BME280;65251;51.022;13.736;2023-07-20T01:29:55;98957.63;;;17.51;81.37
76586;BME280;65251;51.022;13.736;2023-07-20T01:30:51;98956.25;;;17.48;80.23
76586;BME280;65251;51.022;13.736;2023-07-20T01:31:28;98958.38;;;17.46;79.97
76586;BME280;65251;51.022;13.736;2023-07-20T01:32:02;98954.31;;;17.44;80.86
76586;BME280;65251;51.022;13.736;2023-07-20T01:32:36;98960.19;;;17.36;81.98
76586;BME280;65251;51.022;13.736;2023-07-20T01:33:13;98955.00;;;17.29;81.24
76586;BME280;65251;51.022;13.736;2023-07-20T01:33:47;98960.09;;;17.26;81.29
76586;BME280;65251;51.022;13.736;2023-07-20T01:34:20;98962.78;;;17.26;81.67
76586;BME280;65251;51.022;13.736;2023-07-20T01:34:55;98956.03;;;17.23;81.83
76586;BME280;65251;51.022;13.736;2023-07-20T01:35:30;98955.47;;;17.21;82.51
76586;BME280;65251;51.022;13.736;2023-07-20T01:36:02;98950.09;;;17.21;83.25
76586;BME280;65251;51.022;13.736;2023-07-20T01:36:37;98953.84;;;17.20;82.46
76586;BME280;65251;51.022;13.736;2023-07-20T01:37:10;98952.22;;;17.19;83.28
76586;BME280;65251;51.022;13.736;2023-07-20T01:37:44;98953.84;;;17.20;81.75
76586;BME280;65251;51.022;13.736;2023-07-20T01:38:18;98950.63;;;17.18;81.81
76586;BME280;65251;51.022;13.736;2023-07-20T01:38:51;98958.69;;;17.18;82.28
76586;BME280;65251;51.022;13.736;2023-07-20T01:39:23;98953.31;;;17.18;82.52
76586;BME280;65251;51.022;13.736;2023-07-20T01:39:54;98963.00;;;17.19;81.22
76586;BME280;65251;51.022;13.736;2023-07-20T01:40:26;98964.91;;;17.18;81.96
76586;BME280;65251;51.022;13.736;2023-07-20T01:40:59;98955.19;;;17.17;81.71
76586;BME280;65251;51.022;13.736;2023-07-20T01:41:30;98962.72;;;17.15;83.31
76586;BME280;65251;51.022;13.736;2023-07-20T01:42:01;98955.44;;;17.16;82.90
76586;BME280;65251;51.022;13.736;2023-07-20T01:42:32;98962.72;;;17.15;82.01
76586;BME280;65251;51.022;13.736;2023-07-20T01:43:03;98957.56;;;17.14;81.39
76586;BME280;65251;51.022;13.736;2023-07-20T01:43:34;98957.84;;;17.12;81.96
76586;BME280;65251;51.022;13.736;2023-07-20T01:44:05;98960.22;;;17.09;83.59
76586;BME280;65251;51.022;13.736;2023-07-20T01:44:38;98959.91;;;17.05;82.64
76586;BME280;65251;51.022;13.736;2023-07-20T01:45:09;98957.97;;;17.01;83.41
76586;BME280;65251;51.022;13.736;2023-07-20T01:45:40;98959.84;;;17.00;83.01
76586;BME280;65251;51.022;13.736;2023-07-20T01:46:10;98961.94;;;16.93;83.77
76586;BME280;65251;51.022;13.736;2023-07-20T01:46:43;98965.69;;;16.92;83.99
76586;BME280;65251;51.022;13.736;2023-07-20T01:47:14;98971.91;;;16.93;82.56
76586;BME280;65251;51.022;13.736;2023-07-20T01:47:45;98967.31;;;16.93;82.39
76586;BME280;65251;51.022;13.736;2023-07-20T01:48:16;98967.03;;;16.90;82.85
76586;BME280;65251;51.022;13.736;2023-07-20T01:48:47;98964.88;;;16.92;83.76
76586;BME280;65251;51.022;13.736;2023-07-20T01:49:18;98967.84;;;16.90;84.14
76586;BME280;65251;51.022;13.736;2023-07-20T01:49:49;98960.56;;;16.91;82.37
76586;BME280;65251;51.022;13.736;2023-07-20T01:50:20;98960.56;;;16.91;83.05
76586;BME280;65251;51.022;13.736;2023-07-20T01:50:51;98953.31;;;16.91;82.59
76586;BME280;65251;51.022;13.736;2023-07-20T01:51:22;98963.25;;;16.91;82.59
76586;BME280;65251;51.022;13.736;2023-07-20T01:51:53;98958.69;;;16.91;82.52
76586;BME280;65251;51.022;13.736;2023-07-20T01:52:23;98961.38;;;16.91;83.36
76586;BME280;65251;51.022;13.736;2023-07-20T01:52:55;98970.03;;;16.93;83.15
76586;BME280;65251;51.022;13.736;2023-07-20T01:53:26;98962.19;;;16.92;82.71
76586;BME280;65251;51.022;13.736;2023-07-20T01:53:57;98967.31;;;16.93;82.90
76586;BME280;65251;51.022;13.736;2023-07-20T01:54:30;98966.50;;;16.93;83.07
76586;BME280;65251;51.022;13.736;2023-07-20T01:55:01;98967.31;;;16.93;82.83
76586;BME280;65251;51.022;13.736;2023-07-20T01:55:31;98962.19;;;16.92;82.94
76586;BME280;65251;51.022;13.736;2023-07-20T01:56:02;98965.13;;;16.90;84.26
76586;BME280;65251;51.022;13.736;2023-07-20T01:56:34;98963.81;;;16.93;84.04
76586;BME280;65251;51.022;13.736;2023-07-20T01:57:05;98966.78;;;16.91;83.19
76586;BME280;65251;51.022;13.736;2023-07-20T01:57:36;98970.28;;;16.92;82.81
76586;BME280;65251;51.022;13.736;2023-07-20T01:58:06;98961.63;;;16.90;83.40
76586;BME280;65251;51.022;13.736;2023-07-20T01:58:38;98967.03;;;16.90;82.33
76586;BME280;65251;51.022;13.736;2023-07-20T01:59:09;98972.91;;;16.86;83.32
76586;BME280;65251;51.022;13.736;2023-07-20T01:59:40;98965.38;;;16.88;85.05
76586;BME280;65251;51.022;13.736;2023-07-20T02:00:11;98962.69;;;16.88;83.20
76586;BME280;65251;51.022;13.736;2023-07-20T02:00:43;98974.78;;;16.86;83.22
76586;BME280;65251;51.022;13.736;2023-07-20T02:01:14;98961.88;;;16.88;82.78
76586;BME280;65251;51.022;13.736;2023-07-20T02:01:46;98962.13;;;16.86;83.01
76586;BME280;65251;51.022;13.736;2023-07-20T02:02:17;98965.56;;;16.82;83.66
76586;BME280;65251;51.022;13.736;2023-07-20T02:02:51;98953.97;;;16.76;84.90
76586;BME280;65251;51.022;13.736;2023-07-20T02:03:21;98958.78;;;16.74;84.47
76586;BME280;65251;51.022;13.736;2023-07-20T02:03:54;98960.41;;;16.75;85.24
76586;BME280;65251;51.022;13.736;2023-07-20T02:04:26;98953.09;;;16.71;84.58
76586;BME280;65251;51.022;13.736;2023-07-20T02:04:57;98951.22;;;16.71;84.96
76586;BME280;65251;51.022;13.736;2023-07-20T02:05:28;98956.78;;;16.65;84.33
76586;BME280;65251;51.022;13.736;2023-07-20T02:05:58;98955.72;;;16.66;85.87
76586;BME280;65251;51.022;13.736;2023-07-20T02:06:31;98956.78;;;16.65;85.39
76586;BME280;65251;51.022;13.736;2023-07-20T02:07:02;98957.34;;;16.67;85.09
76586;BME280;65251;51.022;13.736;2023-07-20T02:07:33;98957.09;;;16.68;83.74
76586;BME280;65251;51.022;13.736;2023-07-20T02:08:04;98955.47;;;16.67;84.20
76586;BME280;65251;51.022;13.736;2023-07-20T02:08:36;98957.41;;;16.72;83.93
76586;BME280;65251;51.022;13.736;2023-07-20T02:09:06;98957.97;;;16.74;83.73
76586;BME280;65251;51.022;13.736;2023-07-20T02:09:37;98951.53;;;16.75;84.29
76586;BME280;65251;51.022;13.736;2023-07-20T02:10:08;98953.97;;;16.76;84.05
76586;BME280;65251;51.022;13.736;2023-07-20T02:10:40;98967.66;;;16.75;83.79
76586;BME280;65251;51.022;13.736;2023-07-20T02:11:11;98962.84;;;16.77;83.66
76586;BME280;65251;51.022;13.736;2023-07-20T02:11:41;98955.84;;;16.76;83.81
76586;BME280;65251;51.022;13.736;2023-07-20T02:12:12;98964.47;;;16.78;83.80
76586;BME280;65251;51.022;13.736;2023-07-20T02:12:44;98961.22;;;16.76;83.72
76586;BME280;65251;51.022;13.736;2023-07-20T02:13:15;98960.16;;;16.77;85.28
76586;BME280;65251;51.022;13.736;2023-07-20T02:13:46;98956.34;;;16.73;85.37
76586;BME280;65251;51.022;13.736;2023-07-20T02:14:16;98953.34;;;16.69;85.50
76586;BME280;65251;51.022;13.736;2023-07-20T02:14:48;98953.50;;;16.63;84.78
76586;BME280;65251;51.022;13.736;2023-07-20T02:15:21;98955.34;;;16.57;86.59
76586;BME280;65251;51.022;13.736;2023-07-20T02:15:52;98957.22;;;16.57;85.94
76586;BME280;65251;51.022;13.736;2023-07-20T02:16:23;98956.97;;;16.58;86.56
76586;BME280;65251;51.022;13.736;2023-07-20T02:16:56;98953.97;;;16.54;86.07
76586;BME280;65251;51.022;13.736;2023-07-20T02:17:28;98953.72;;;16.56;84.69
76586;BME280;65251;51.022;13.736;2023-07-20T02:17:58;98952.66;;;16.57;84.75
76586;BME280;65251;51.022;13.736;2023-07-20T02:18:29;98954.28;;;16.58;84.65
76586;BME280;65251;51.022;13.736;2023-07-20T02:19:01;98959.66;;;16.58;84.56
76586;BME280;65251;51.022;13.736;2023-07-20T02:19:32;98962.59;;;16.57;86.44
76586;BME280;65251;51.022;13.736;2023-07-20T02:20:03;98964.72;;;16.54;86.00
76586;BME280;65251;51.022;13.736;2023-07-20T02:20:34;98957.16;;;16.51;84.92
76586;BME280;65251;51.022;13.736;2023-07-20T02:21:06;98960.91;;;16.50;86.18
76586;BME280;65251;51.022;13.736;2023-07-20T02:21:36;98960.09;;;16.50;87.18
76586;BME280;65251;51.022;13.736;2023-07-20T02:22:07;98961.38;;;16.47;86.23
76586;BME280;65251;51.022;13.736;2023-07-20T02:22:38;98961.38;;;16.47;87.10
76586;BME280;65251;51.022;13.736;2023-07-20T02:23:10;98963.03;;;16.48;85.15
76586;BME280;65251;51.022;13.736;2023-07-20T02:23:41;98963.03;;;16.48;85.18
76586;BME280;65251;51.022;13.736;2023-07-20T02:24:13;98964.66;;;16.49;86.61
76586;BME280;65251;51.022;13.736;2023-07-20T02:24:43;98960.81;;;16.45;86.60
76586;BME280;65251;51.022;13.736;2023-07-20T02:25:14;98957.88;;;16.47;86.49
76586;BME280;65251;51.022;13.736;2023-07-20T02:25:46;98958.13;;;16.45;86.03
76586;BME280;65251;51.022;13.736;2023-07-20T02:26:17;98961.63;;;16.46;86.28
76586;BME280;65251;51.022;13.736;2023-07-20T02:26:48;98963.25;;;16.47;86.03
76586;BME280;65251;51.022;13.736;2023-07-20T02:27:19;98954.63;;;16.45;85.44
76586;BME280;65251;51.022;13.736;2023-07-20T02:27:52;98957.56;;;16.43;85.54
76586;BME280;65251;51.022;13.736;2023-07-20T02:28:23;98958.38;;;16.44;87.46
76586;BME280;65251;51.022;13.736;2023-07-20T02:28:54;98960.25;;;16.43;87.60
76586;BME280;65251;51.022;13.736;2023-07-20T02:29:24;98958.31;;;16.39;87.57
76586;BME280;65251;51.022;13.736;2023-07-20T02:29:56;98956.44;;;16.39;86.62
76586;BME280;65251;51.022;13.736;2023-07-20T02:30:27;98963.44;;;16.40;87.50
76586;BME280;65251;51.022;13.736;2023-07-20T02:30:58;98947.84;;;16.37;86.31
76586;BME280;65251;51.022;13.736;2023-07-20T02:31:31;98952.09;;;16.33;86.81
76586;BME280;65251;51.022;13.736;2023-07-20T02:32:03;98957.72;;;16.32;87.25
76586;BME280;65251;51.022;13.736;2023-07-20T02:32:34;98959.34;;;16.33;86.58
76586;BME280;65251;51.022;13.736;2023-07-20T02:33:05;98956.66;;;16.33;86.27
76586;BME280;65251;51.022;13.736;2023-07-20T02:33:37;98956.97;;;16.36;87.44
76586;BME280;65251;51.022;13.736;2023-07-20T02:34:07;98955.91;;;16.37;87.31
76586;BME280;65251;51.022;13.736;2023-07-20T02:34:38;98961.28;;;16.37;86.08
76586;BME280;65251;51.022;13.736;2023-07-20T02:35:09;98959.13;;;16.39;86.30
76586;BME280;65251;51.022;13.736;2023-07-20T02:35:41;98959.94;;;16.40;86.93
76586;BME280;65251;51.022;13.736;2023-07-20T02:36:12;98959.13;;;16.39;86.12
76586;BME280;65251;51.022;13.736;2023-07-20T02:36:42;98956.66;;;16.33;87.96
76586;BME280;65251;51.022;13.736;2023-07-20T02:37:13;98963.09;;;16.32;86.59
76586;BME280;65251;51.022;13.736;2023-07-20T02:37:45;98948.81;;;16.31;86.96
76586;BME280;65251;51.022;13.736;2023-07-20T02:38:16;98957.94;;;16.30;88.22
76586;BME280;65251;51.022;13.736;2023-07-20T02:38:46;98959.34;;;16.33;87.10
76586;BME280;65251;51.022;13.736;2023-07-20T02:39:17;98960.16;;;16.33;87.37
76586;BME280;65251;51.022;13.736;2023-07-20T02:39:49;98954.44;;;16.30;87.17
76586;BME280;65251;51.022;13.736;2023-07-20T02:40:19;98959.00;;;16.29;88.43
76586;BME280;65251;51.022;13.736;2023-07-20T02:40:50;98961.94;;;16.28;88.29
76586;BME280;65251;51.022;13.736;2023-07-20T02:41:22;98957.94;;;16.30;87.66
76586;BME280;65251;51.022;13.736;2023-07-20T02:41:53;98949.56;;;16.27;88.29
76586;BME280;65251;51.022;13.736;2023-07-20T02:42:24;98957.38;;;16.28;88.45
76586;BME280;65251;51.022;13.736;2023-07-20T02:42:56;98962.28;;;16.31;87.45
76586;BME280;65251;51.022;13.736;2023-07-20T02:43:27;98955.50;;;16.29;87.56
76586;BME280;65251;51.022;13.736;2023-07-20T02:43:59;98960.63;;;16.30;88.31
76586;BME280;65251;51.022;13.736;2023-07-20T02:44:29;98958.53;;;16.32;88.33
76586;BME280;65251;51.022;13.736;2023-07-20T02:45:01;98962.03;;;16.33;87.98
76586;BME280;65251;51.022;13.736;2023-07-20T02:45:32;98958.03;;;16.35;87.25
76586;BME280;65251;51.022;13.736;2023-07-20T02:46:03;98958.03;;;16.35;86.57
76586;BME280;65251;51.022;13.736;2023-07-20T02:46:34;98958.03;;;16.35;86.71
76586;BME280;65251;51.022;13.736;2023-07-20T02:47:07;98967.16;;;16.34;86.82
76586;BME280;65251;51.022;13.736;2023-07-20T02:47:38;98959.91;;;16.35;87.99
76586;BME280;65251;51.022;13.736;2023-07-20T02:48:09;98956.88;;;16.31;87.65
76586;BME280;65251;51.022;13.736;2023-07-20T02:48:40;98975.72;;;16.31;87.07
76586;BME280;65251;51.022;13.736;2023-07-20T02:49:11;98965.53;;;16.33;87.04
76586;BME280;65251;51.022;13.736;2023-07-20T02:49:42;98964.72;;;16.33;86.04
76586;BME280;65251;51.022;13.736;2023-07-20T02:50:14;98962.28;;;16.31;87.94
76586;BME280;65251;51.022;13.736;2023-07-20T02:50:44;98960.41;;;16.32;87.56
76586;BME280;65251;51.022;13.736;2023-07-20T02:51:15;98962.28;;;16.31;87.81